Time;durP1;ratioP1;P1;durP2;ratioP2;P2;SDS_P1;SDS_P2;PMS_P1;PMS_P2;Temp;Humidity;BMP_temperature;BMP_pressure;BME280_temperature;BME280_humidity;BME280_pressure;Samples;Min_cycle;Max_cycle;Signal;HPM_P1;HPM_P2
2022/02/24 00:01:48;;;;;;;11.25;3.67;;;;;;;5.89;70.97;101626.97;5056148;28;20041;-74
2022/02/24 00:04:14;;;;;;;16.13;3.90;;;;;;;5.90;70.50;101628.69;5073874;28;20067;-75
2022/02/24 00:06:39;;;;;;;17.42;3.72;;;;;;;5.85;71.03;101630.72;5073430;28;20048;-75
2022/02/24 00:09:07;;;;;;;18.02;3.53;;;;;;;5.83;71.37;101624.69;5055988;28;20037;-75
2022/02/24 00:11:32;;;;;;;15.70;3.30;;;;;;;5.82;71.41;101631.78;5073270;28;20072;-75
2022/02/24 00:13:58;;;;;;;13.02;3.40;;;;;;;5.80;71.82;101616.94;5073501;28;20064;-74
2022/02/24 00:16:23;;;;;;;14.77;2.90;;;;;;;5.78;71.57;101619.69;5072718;28;20057;-74
2022/02/24 00:18:49;;;;;;;12.93;2.78;;;;;;;5.79;71.75;101615.25;5073624;28;20044;-74
2022/02/24 00:21:14;;;;;;;15.05;2.40;;;;;;;5.79;71.67;101602.03;5074145;28;20490;-74
2022/02/24 00:23:40;;;;;;;14.73;3.40;;;;;;;5.78;71.54;101589.78;5055133;28;20033;-75
2022/02/24 00:26:05;;;;;;;20.70;3.88;;;;;;;5.77;71.83;101596.00;5055590;28;20473;-74
2022/02/24 00:28:30;;;;;;;18.70;3.95;;;;;;;5.75;72.17;101585.53;5072745;28;20085;-75
2022/02/24 00:30:56;;;;;;;16.00;3.40;;;;;;;5.74;72.13;101589.09;5073364;28;20133;-74
2022/02/24 00:33:21;;;;;;;18.60;2.67;;;;;;;5.75;72.21;101598.72;5073530;28;20032;-74
2022/02/24 00:35:46;;;;;;;12.38;3.25;;;;;;;5.78;71.73;101584.50;5072961;28;20115;-75
2022/02/24 00:38:12;;;;;;;24.00;3.20;;;;;;;5.81;71.54;101594.88;5055471;28;20091;-75
2022/02/24 00:40:37;;;;;;;14.10;2.95;;;;;;;5.83;71.71;101593.00;5072691;28;20025;-74
2022/02/24 00:43:02;;;;;;;16.95;2.63;;;;;;;5.83;71.36;101585.91;5073147;28;20032;-74
2022/02/24 00:45:30;;;;;;;13.02;3.03;;;;;;;5.80;71.86;101594.03;5072395;28;20463;-75
2022/02/24 00:47:55;;;;;;;19.67;3.35;;;;;;;5.82;71.75;101592.16;5055455;28;20032;-74
2022/02/24 00:50:21;;;;;;;13.95;3.20;;;;;;;5.80;72.13;101590.53;5073385;28;20449;-75
2022/02/24 00:52:46;;;;;;;13.27;2.65;;;;;;;5.81;71.70;101587.81;5072596;28;20032;-75
2022/02/24 00:55:11;;;;;;;12.85;2.70;;;;;;;5.81;71.82;101589.59;5073055;28;20033;-74
2022/02/24 00:57:37;;;;;;;12.10;3.15;;;;;;;5.80;72.11;101579.97;5072162;28;20413;-75
2022/02/24 01:00:04;;;;;;;13.38;2.80;;;;;;;5.77;72.11;101577.50;5072765;28;20389;-74
2022/02/24 01:02:29;;;;;;;13.88;2.85;;;;;;;5.78;72.08;101581.88;5072607;28;20097;-74
2022/02/24 01:04:54;;;;;;;14.00;3.03;;;;;;;5.76;72.91;101567.88;5055138;28;20473;-74
2022/02/24 01:07:20;;;;;;;14.98;3.55;;;;;;;5.80;72.14;101564.13;5072647;28;20493;-75
2022/02/24 01:09:45;;;;;;;16.13;3.03;;;;;;;5.82;72.12;101562.25;5073175;28;20601;-74
2022/02/24 01:12:10;;;;;;;14.40;3.47;;;;;;;5.78;72.96;101556.28;5074286;28;20024;-74
2022/02/24 01:14:36;;;;;;;17.55;3.28;;;;;;;5.74;73.10;101543.38;5071563;28;20053;-74
2022/02/24 01:17:02;;;;;;;17.35;3.45;;;;;;;5.75;73.04;101540.63;5072679;28;20040;-75
2022/02/24 01:19:28;;;;;;;17.42;3.40;;;;;;;5.79;72.74;101536.00;5072341;28;20041;-74
2022/02/24 01:21:53;;;;;;;14.30;2.70;;;;;;;5.78;73.15;101532.53;5072182;28;20036;-74
2022/02/24 01:24:18;;;;;;;20.42;3.25;;;;;;;5.76;73.56;101529.13;5072553;28;20393;-74
2022/02/24 01:26:44;;;;;;;17.50;3.50;;;;;;;5.78;73.13;101529.88;5071824;28;20032;-74
2022/02/24 01:29:10;;;;;;;15.63;2.90;;;;;;;5.78;73.32;101521.13;5072429;28;20393;-73
2022/02/24 01:31:35;;;;;;;20.50;3.55;;;;;;;5.79;73.38;101521.03;5071438;28;20035;-74
2022/02/24 01:34:00;;;;;;;12.30;3.00;;;;;;;5.80;73.30;101513.94;5054532;28;20063;-75
2022/02/24 01:36:27;;;;;;;14.98;3.80;;;;;;;5.81;73.52;101507.75;5054426;28;20044;-74
2022/02/24 01:38:52;;;;;;;17.63;3.25;;;;;;;5.81;73.47;101505.94;5071333;28;20637;-75
2022/02/24 01:41:18;;;;;;;18.25;3.42;;;;;;;5.83;73.59;101503.19;5071972;28;20063;-74
2022/02/24 01:43:46;;;;;;;14.65;3.15;;;;;;;5.89;73.26;101483.50;5071241;28;20032;-75
2022/02/24 01:46:12;;;;;;;16.50;3.10;;;;;;;5.88;73.67;101498.50;5071766;28;20037;-75
2022/02/24 01:48:37;;;;;;;15.30;3.97;;;;;;;5.86;73.66;101488.97;5071222;28;20078;-74
2022/02/24 01:51:02;;;;;;;13.60;3.15;;;;;;;5.81;74.31;101482.16;5071854;28;20468;-74
2022/02/24 01:53:28;;;;;;;12.77;3.13;;;;;;;5.83;74.01;101482.91;5071650;28;20028;-74
2022/02/24 01:55:53;;;;;;;18.67;3.55;;;;;;;5.88;73.82;101477.38;5071128;28;20033;-74
2022/02/24 01:58:19;;;;;;;17.35;3.70;;;;;;;5.90;74.00;101474.66;5053631;28;20032;-74
2022/02/24 02:00:45;;;;;;;13.02;3.35;;;;;;;5.91;74.14;101468.41;5070888;28;20044;-74
2022/02/24 02:03:10;;;;;;;16.88;3.35;;;;;;;5.89;74.24;101465.00;5071762;28;20090;-73
2022/02/24 02:05:36;;;;;;;13.88;3.40;;;;;;;5.88;74.52;101450.97;5071294;28;20036;-74
2022/02/24 02:08:04;;;;;;;15.73;3.20;;;;;;;5.86;74.89;101446.72;5071771;28;20032;-75
2022/02/24 02:10:30;;;;;;;17.35;3.05;;;;;;;5.84;74.98;101444.16;5071547;28;20105;-74
2022/02/24 02:12:55;;;;;;;15.25;3.40;;;;;;;5.87;74.99;101443.97;5053046;28;20044;-74
2022/02/24 02:15:21;;;;;;;17.52;4.55;;;;;;;5.85;75.10;101437.91;5071367;28;20049;-74
2022/02/24 02:17:47;;;;;;;14.98;3.38;;;;;;;5.85;74.99;101437.09;5053250;28;20037;-75
2022/02/24 02:20:12;;;;;;;10.10;2.90;;;;;;;5.85;74.90;101435.28;5071687;28;20059;-74
2022/02/24 02:22:38;;;;;;;13.90;2.90;;;;;;;5.85;75.29;101439.72;5070875;28;20043;-74
2022/02/24 02:25:06;;;;;;;16.73;3.10;;;;;;;5.85;75.31;101431.81;5071325;28;20032;-75
2022/02/24 02:27:33;;;;;;;11.30;3.15;;;;;;;5.86;75.32;101425.59;5071183;28;20040;-75
2022/02/24 02:29:58;;;;;;;16.73;3.00;;;;;;;5.86;75.32;101422.94;5070622;28;20037;-75
2022/02/24 02:32:25;;;;;;;18.95;3.20;;;;;;;5.86;75.66;101426.41;5071405;28;20041;-75
2022/02/24 02:34:50;;;;;;;11.80;2.65;;;;;;;5.88;75.35;101426.31;5052719;28;20063;-74
2022/02/24 02:37:15;;;;;;;18.08;3.15;;;;;;;5.89;75.33;101425.41;5071489;28;20461;-75
2022/02/24 02:39:41;;;;;;;15.70;3.55;;;;;;;5.88;75.36;101410.47;5070669;28;20036;-75
2022/02/24 02:42:06;;;;;;;12.85;2.75;;;;;;;5.87;75.36;101417.56;5053473;28;20032;-75
2022/02/24 02:44:32;;;;;;;15.15;3.05;;;;;;;5.90;75.39;101416.53;5071008;28;20031;-75
2022/02/24 02:46:57;;;;;;;15.85;3.22;;;;;;;5.87;75.47;101411.41;5070702;28;20571;-74
2022/02/24 02:49:22;;;;;;;13.80;3.38;;;;;;;5.88;75.58;101406.06;5071570;28;20036;-75
2022/02/24 02:51:49;;;;;;;15.98;3.00;;;;;;;5.85;75.66;101397.47;5070551;28;20531;-75
2022/02/24 02:54:14;;;;;;;16.27;2.75;;;;;;;5.79;75.78;101388.13;5036793;28;20388;-75
2022/02/24 02:56:40;;;;;;;13.88;3.00;;;;;;;5.71;76.15;101390.41;5070878;28;20033;-74
2022/02/24 02:59:05;;;;;;;12.25;3.00;;;;;;;5.65;76.30;101379.25;5052944;28;20020;-75
2022/02/24 03:01:31;;;;;;;10.15;2.70;;;;;;;5.63;76.60;101375.03;5071093;28;20035;-75
2022/02/24 03:03:56;;;;;;;19.70;3.45;;;;;;;5.60;76.59;101368.16;5070394;28;20036;-75
2022/02/24 03:06:21;;;;;;;14.82;4.20;;;;;;;5.53;76.94;101372.09;5071082;28;20033;-74
2022/02/24 03:08:47;;;;;;;14.10;3.55;;;;;;;5.47;77.08;101365.38;5070576;28;20410;-74
2022/02/24 03:11:12;;;;;;;14.02;2.95;;;;;;;5.46;77.07;101361.06;5071228;28;20036;-74
2022/02/24 03:13:38;;;;;;;17.92;3.83;;;;;;;5.43;77.45;101349.84;5053005;28;20039;-75
2022/02/24 03:16:03;;;;;;;11.07;2.70;;;;;;;5.41;77.28;101344.66;5070739;28;20045;-76
2022/02/24 03:18:29;;;;;;;14.63;2.60;;;;;;;5.41;77.39;101346.44;5071058;28;20029;-76
2022/02/24 03:20:54;;;;;;;15.48;3.13;;;;;;;5.38;77.45;101341.38;5052555;28;20505;-75
2022/02/24 03:23:19;;;;;;;14.43;3.92;;;;;;;5.30;77.91;101337.41;5070839;28;20035;-75
2022/02/24 03:25:45;;;;;;;12.55;3.72;;;;;;;5.30;77.71;101339.19;5052381;28;20044;-75
2022/02/24 03:28:10;;;;;;;14.10;3.42;;;;;;;5.28;78.04;101331.38;5070817;28;20032;-75
2022/02/24 03:30:37;;;;;;;14.95;2.90;;;;;;;5.26;78.36;101338.50;5070715;28;20495;-74
2022/02/24 03:33:04;;;;;;;19.40;2.88;;;;;;;5.22;78.36;101334.34;5070437;28;20127;-75
2022/02/24 03:35:30;;;;;;;12.73;3.05;;;;;;;5.20;78.47;101336.25;5070803;28;20029;-75
2022/02/24 03:37:56;;;;;;;19.08;3.33;;;;;;;5.19;78.46;101328.44;5071955;28;20090;-75
2022/02/24 03:40:22;;;;;;;13.30;2.83;;;;;;;5.19;78.54;101342.47;5074440;28;20441;-75
2022/02/24 03:42:51;;;;;;;11.23;2.80;;;;;;;5.13;78.61;101329.63;5073612;28;20078;-74
2022/02/24 03:45:17;;;;;;;19.77;3.28;;;;;;;5.07;78.83;101322.94;5073959;28;20072;-74
2022/02/24 03:47:42;;;;;;;8.63;2.58;;;;;;;5.12;79.18;101317.41;5074167;28;20108;-75
2022/02/24 03:50:09;;;;;;;12.60;2.90;;;;;;;5.11;79.00;101313.06;5073448;28;20870;-75
2022/02/24 03:52:34;;;;;;;14.23;3.95;;;;;;;5.12;79.48;101312.13;5073996;28;20040;-75
2022/02/24 03:55:00;;;;;;;16.38;2.70;;;;;;;5.10;79.40;101316.63;5073259;28;20142;-75
2022/02/24 03:57:26;;;;;;;12.32;3.40;;;;;;;5.05;79.85;101310.78;5074005;28;20028;-75
2022/02/24 03:59:51;;;;;;;18.45;4.28;;;;;;;5.06;80.01;101307.19;5073272;28;20461;-75
2022/02/24 04:02:17;;;;;;;14.82;3.03;;;;;;;5.05;79.93;101300.25;5073716;28;20033;-74
2022/02/24 04:04:42;;;;;;;15.00;3.15;;;;;;;5.11;80.05;101289.31;5073787;28;20455;-75
2022/02/24 04:07:08;;;;;;;15.25;3.20;;;;;;;5.12;79.79;101286.59;5073396;28;20037;-74
2022/02/24 04:09:33;;;;;;;10.52;2.67;;;;;;;5.17;79.77;101290.75;5055890;28;20041;-74
2022/02/24 04:11:59;;;;;;;12.18;2.75;;;;;;;5.24;79.51;101298.19;5073003;28;20108;-75
2022/02/24 04:14:24;;;;;;;9.02;2.65;;;;;;;5.24;79.63;101292.03;5073285;28;20095;-74
2022/02/24 04:16:50;;;;;;;12.15;3.10;;;;;;;5.29;79.27;101296.09;5073258;28;20033;-75
2022/02/24 04:19:16;;;;;;;13.07;3.22;;;;;;;5.27;79.38;101291.88;5055114;28;20119;-75
2022/02/24 04:21:43;;;;;;;12.88;2.88;;;;;;;5.24;79.65;101292.91;5073687;28;20058;-75
2022/02/24 04:24:08;;;;;;;12.07;2.85;;;;;;;5.19;79.77;101294.97;5072795;28;20024;-75
2022/02/24 04:26:34;;;;;;;15.48;3.25;;;;;;;5.16;80.03;101292.50;5073639;28;20366;-75
2022/02/24 04:29:00;;;;;;;15.43;3.30;;;;;;;5.18;80.06;101285.38;5072700;28;20111;-75
2022/02/24 04:31:26;;;;;;;15.02;3.65;;;;;;;5.20;80.53;101286.13;5055331;28;20036;-75
2022/02/24 04:33:51;;;;;;;18.92;3.90;;;;;;;5.24;80.33;101286.78;5073261;28;20066;-75
2022/02/24 04:36:17;;;;;;;15.98;3.88;;;;;;;5.26;80.37;101291.03;5072707;28;20028;-75
2022/02/24 04:38:42;;;;;;;13.98;2.92;;;;;;;5.28;80.37;101281.25;5073093;28;20068;-75
2022/02/24 04:41:08;;;;;;;15.38;3.45;;;;;;;5.29;80.42;101280.28;5072709;28;20415;-75
2022/02/24 04:43:34;;;;;;;20.02;3.60;;;;;;;5.33;80.13;101269.53;5073656;28;20127;-75
2022/02/24 04:46:00;;;;;;;25.23;3.40;;;;;;;5.35;80.13;101267.66;5072614;28;20060;-75
2022/02/24 04:48:25;;;;;;;12.52;2.95;;;;;;;5.38;79.72;101254.28;5073297;28;20449;-75
2022/02/24 04:50:51;;;;;;;15.00;2.80;;;;;;;5.33;80.51;101244.00;5073391;28;20249;-75
2022/02/24 04:53:16;;;;;;;25.38;4.88;;;;;;;5.33;80.30;101251.94;5054938;28;20032;-75
2022/02/24 04:55:42;;;;;;;18.95;3.80;;;;;;;5.32;80.32;101252.84;5073073;28;20170;-74
2022/02/24 04:58:08;;;;;;;17.98;3.47;;;;;;;5.31;80.47;101245.88;5054225;28;20044;-74
2022/02/24 05:00:33;;;;;;;13.82;3.22;;;;;;;5.32;80.61;101236.19;5054692;28;20111;-74
2022/02/24 05:02:59;;;;;;;17.83;3.30;;;;;;;5.32;80.92;101230.91;5072294;28;20112;-74
2022/02/24 05:05:24;;;;;;;12.85;3.35;;;;;;;5.33;80.69;101238.72;5073033;28;20043;-74
2022/02/24 05:07:50;;;;;;;17.30;4.03;;;;;;;5.37;80.66;101234.09;5072708;28;20033;-74
2022/02/24 05:10:15;;;;;;;17.55;3.50;;;;;;;5.39;80.60;101237.47;5054013;28;20032;-74
2022/02/24 05:12:41;;;;;;;24.23;3.38;;;;;;;5.43;80.22;101233.72;5072549;28;20048;-74
2022/02/24 05:15:07;;;;;;;21.25;4.10;;;;;;;5.46;80.27;101228.25;5071941;28;20139;-75
2022/02/24 05:17:34;;;;;;;18.83;3.38;;;;;;;5.48;80.27;101224.56;5072477;28;20163;-75
2022/02/24 05:20:00;;;;;;;12.63;3.20;;;;;;;5.50;79.97;101216.56;5072324;28;20105;-75
2022/02/24 05:22:26;;;;;;;20.42;3.45;;;;;;;5.53;80.07;101212.88;5054719;28;20501;-75
2022/02/24 05:24:51;;;;;;;15.73;2.88;;;;;;;5.52;80.09;101198.81;5072810;28;20041;-75
2022/02/24 05:27:17;;;;;;;19.75;3.45;;;;;;;5.55;79.79;101200.41;5054022;28;20037;-75
2022/02/24 05:29:43;;;;;;;12.90;2.85;;;;;;;5.54;79.84;101196.94;5072296;28;20038;-75
2022/02/24 05:32:08;;;;;;;13.93;3.05;;;;;;;5.56;79.66;101196.84;5071999;28;20036;-75
2022/02/24 05:34:34;;;;;;;12.27;3.33;;;;;;;5.55;79.52;101192.50;5072399;28;20373;-75
2022/02/24 05:36:59;;;;;;;16.23;3.20;;;;;;;5.55;79.41;101193.34;5054422;28;20401;-75
2022/02/24 05:39:25;;;;;;;11.38;3.30;;;;;;;5.58;79.10;101181.75;5054253;28;20043;-74
2022/02/24 05:41:50;;;;;;;19.50;3.15;;;;;;;5.59;79.34;101173.72;5072339;28;20132;-73
2022/02/24 05:44:15;;;;;;;16.52;3.28;;;;;;;5.54;79.71;101172.31;5071487;28;20047;-74
2022/02/24 05:46:41;;;;;;;11.85;2.85;;;;;;;5.50;79.65;101153.19;5071932;28;20090;-75
2022/02/24 05:49:06;;;;;;;13.30;3.35;;;;;;;5.51;79.50;101149.63;5071504;28;20390;-73
2022/02/24 05:51:32;;;;;;;10.48;3.08;;;;;;;5.53;79.41;101153.00;5072067;28;20523;-75
2022/02/24 05:53:57;;;;;;;14.25;3.47;;;;;;;5.57;79.15;101151.88;5071919;28;20033;-74
2022/02/24 05:56:23;;;;;;;13.20;2.78;;;;;;;5.59;79.22;101149.97;5071435;28;20051;-75
2022/02/24 05:58:48;;;;;;;15.07;3.15;;;;;;;5.59;79.27;101139.41;5071747;28;20032;-75
2022/02/24 06:01:13;;;;;;;18.27;3.03;;;;;;;5.59;79.12;101135.94;5070750;28;20033;-75
2022/02/24 06:03:39;;;;;;;14.88;3.20;;;;;;;5.58;79.09;101137.72;5071849;28;20115;-75
2022/02/24 06:06:04;;;;;;;12.60;3.33;;;;;;;5.60;78.66;101135.84;5037284;28;20032;-75
2022/02/24 06:08:29;;;;;;;16.88;3.13;;;;;;;5.63;78.75;101132.16;5071534;28;20362;-75
2022/02/24 06:10:55;;;;;;;14.38;2.90;;;;;;;5.61;78.86;101136.66;5071802;28;20452;-75
2022/02/24 06:13:20;;;;;;;17.10;3.08;;;;;;;5.61;78.60;101124.34;5070526;28;20090;-75
2022/02/24 06:15:46;;;;;;;10.25;2.53;;;;;;;5.62;78.67;101117.25;5070879;28;20055;-74
2022/02/24 06:18:16;;;;;;;15.63;3.17;;;;;;;5.60;78.94;101119.16;5071058;28;20108;-77
2022/02/24 06:20:41;;;;;;;15.60;3.22;;;;;;;5.64;78.45;101124.13;5053396;28;20036;-77
2022/02/24 06:23:07;;;;;;;10.68;3.40;;;;;;;5.68;78.49;101130.03;5070969;28;20033;-76
2022/02/24 06:25:32;;;;;;;13.65;2.90;;;;;;;5.70;78.23;101127.31;5070937;28;20449;-79
2022/02/24 06:27:59;;;;;;;12.13;2.50;;;;;;;5.64;78.77;101121.50;5071098;28;20040;-78
2022/02/24 06:30:24;;;;;;;15.32;3.38;;;;;;;5.62;78.81;101115.44;5069993;28;20032;-77
2022/02/24 06:32:49;;;;;;;11.13;3.22;;;;;;;5.63;78.79;101116.31;5070913;28;20028;-77
2022/02/24 06:35:15;;;;;;;25.38;3.70;;;;;;;5.63;78.90;101106.59;5070304;28;20426;-77
2022/02/24 06:37:42;;;;;;;15.10;2.58;;;;;;;5.67;78.70;101106.38;5070458;28;20372;-77
2022/02/24 06:40:09;;;;;;;16.40;3.08;;;;;;;5.64;78.60;101092.44;5070625;28;20506;-77
2022/02/24 06:42:34;;;;;;;11.43;2.90;;;;;;;5.65;78.83;101094.13;5070221;28;20025;-78
2022/02/24 06:45:00;;;;;;;16.67;3.25;;;;;;;5.65;79.02;101102.03;5070591;28;20070;-79
2022/02/24 06:47:25;;;;;;;16.63;3.00;;;;;;;5.62;79.16;101081.13;5069689;28;20037;-78
2022/02/24 06:49:51;;;;;;;13.07;2.55;;;;;;;5.65;78.82;101091.47;5070472;28;20128;-77
2022/02/24 06:52:16;;;;;;;18.40;3.00;;;;;;;5.71;78.29;101084.13;5051945;28;20533;-79
2022/02/24 06:54:41;;;;;;;12.65;2.60;;;;;;;5.73;78.53;101085.72;5070367;28;20473;-78
2022/02/24 06:57:07;;;;;;;14.20;2.63;;;;;;;5.73;78.75;101074.28;5070456;28;20040;-77
2022/02/24 06:59:34;;;;;;;17.27;2.95;;;;;;;5.76;78.41;101060.88;5069678;28;20098;-77
2022/02/24 07:02:00;;;;;;;17.13;3.03;;;;;;;5.79;77.86;101061.53;5070271;28;20055;-76
2022/02/24 07:04:25;;;;;;;10.88;2.80;;;;;;;5.82;77.82;101053.41;5051960;28;20024;-79
2022/02/24 07:06:51;;;;;;;9.98;2.35;;;;;;;5.85;77.72;101048.88;5070637;28;20059;-78
2022/02/24 07:09:16;;;;;;;10.18;3.45;;;;;;;5.89;77.64;101050.34;5069620;28;20175;-78
2022/02/24 07:11:41;;;;;;;11.38;3.47;;;;;;;5.93;77.37;101050.03;5052290;28;20488;-76
2022/02/24 07:14:07;;;;;;;11.52;2.97;;;;;;;5.95;77.75;101048.13;5073097;28;20036;-76
2022/02/24 07:16:33;;;;;;;16.83;3.08;;;;;;;5.95;77.54;101048.13;5074183;28;20127;-77
2022/02/24 07:19:00;;;;;;;12.70;2.67;;;;;;;5.99;77.27;101052.31;5075135;28;20033;-78
2022/02/24 07:21:25;;;;;;;14.25;2.65;;;;;;;6.02;77.34;101045.09;5074653;28;20120;-78
2022/02/24 07:23:50;;;;;;;8.95;2.40;;;;;;;6.02;77.18;101030.13;5075135;28;20123;-78
2022/02/24 07:26:16;;;;;;;11.77;2.53;;;;;;;6.01;77.30;101023.13;5056785;28;20469;-77
2022/02/24 07:28:43;;;;;;;10.57;2.58;;;;;;;6.05;76.96;101021.16;5075046;28;20040;-78
2022/02/24 07:31:09;;;;;;;12.02;2.47;;;;;;;6.08;76.76;101013.84;5057050;28;20564;-77
2022/02/24 07:33:34;;;;;;;11.38;2.50;;;;;;;6.10;77.15;101014.56;5074685;28;20383;-77
2022/02/24 07:35:59;;;;;;;13.02;2.65;;;;;;;6.05;77.85;100995.56;5075077;28;20025;-75
2022/02/24 07:38:25;;;;;;;13.25;2.70;;;;;;;6.11;77.37;101004.88;5074350;28;20044;-76
2022/02/24 07:40:50;;;;;;;15.57;4.53;;;;;;;6.11;77.59;101004.88;5074802;28;20028;-77
2022/02/24 07:43:15;;;;;;;6.90;2.20;;;;;;;6.09;78.00;100991.78;5074819;28;20028;-76
2022/02/24 07:45:41;;;;;;;10.40;2.40;;;;;;;6.10;78.09;100998.72;5074436;28;20048;-75
2022/02/24 07:48:07;;;;;;;11.52;2.92;;;;;;;6.16;77.81;101003.56;5074956;28;20032;-76
2022/02/24 07:50:32;;;;;;;9.68;2.47;;;;;;;6.18;77.50;101006.97;5074258;28;20496;-75
2022/02/24 07:52:58;;;;;;;8.80;2.20;;;;;;;6.19;78.05;100999.88;5074923;28;20503;-77
2022/02/24 07:55:23;;;;;;;12.35;2.45;;;;;;;6.19;78.20;100991.97;5074164;28;20112;-77
2022/02/24 07:57:49;;;;;;;12.30;2.40;;;;;;;6.20;77.78;100996.31;5074702;28;20033;-77
2022/02/24 08:00:15;;;;;;;10.18;2.53;;;;;;;6.22;77.96;101001.47;5074513;28;20039;-77
2022/02/24 08:02:41;;;;;;;13.05;2.40;;;;;;;6.24;78.20;101004.84;5073855;28;20032;-77
2022/02/24 08:05:11;;;;;;;7.40;2.33;;;;;;;6.30;77.30;100997.34;5074443;28;20102;-77
2022/02/24 08:07:37;;;;;;;8.93;2.28;;;;;;;6.39;76.63;101011.72;5073885;28;20028;-77
2022/02/24 08:10:04;;;;;;;11.70;2.45;;;;;;;6.30;77.41;100992.06;5074789;28;20036;-76
2022/02/24 08:12:44;;;;;;;12.00;2.08;;;;;;;6.30;77.27;100993.84;5073712;28;20111;-76
2022/02/24 08:15:13;;;;;;;14.75;2.50;;;;;;;6.35;77.08;100983.81;5073903;28;20143;-75
2022/02/24 08:17:39;;;;;;;15.18;2.53;;;;;;;6.45;77.02;100989.28;5073916;28;20040;-78
2022/02/24 08:20:07;;;;;;;10.38;2.47;;;;;;;6.61;76.67;100981.09;5074293;28;20090;-77
2022/02/24 08:22:34;;;;;;;10.73;2.28;;;;;;;6.64;76.41;100973.81;5073858;28;20389;-76
2022/02/24 08:24:59;;;;;;;10.65;2.78;;;;;;;6.59;76.57;100957.41;5073552;28;20105;-76
2022/02/24 08:27:25;;;;;;;12.15;2.58;;;;;;;6.60;76.05;100953.84;5073528;28;20411;-76
2022/02/24 08:29:50;;;;;;;10.40;2.50;;;;;;;6.60;76.31;100956.47;5074362;28;20036;-76
2022/02/24 08:32:15;;;;;;;13.15;2.78;;;;;;;6.58;76.61;100955.72;5074392;28;20070;-77
2022/02/24 08:34:41;;;;;;;11.07;2.33;;;;;;;6.57;76.70;100953.19;5073363;28;20334;-77
2022/02/24 08:37:06;;;;;;;11.43;2.28;;;;;;;6.54;76.64;100943.72;5073645;28;20068;-76
2022/02/24 08:39:32;;;;;;;10.98;2.28;;;;;;;6.46;75.81;100936.31;5073209;28;20090;-76
2022/02/24 08:41:57;;;;;;;9.38;2.67;;;;;;;6.48;76.25;100929.13;5073514;28;20092;-76
2022/02/24 08:44:22;;;;;;;10.48;2.75;;;;;;;6.48;75.89;100913.25;5073419;28;20047;-76
2022/02/24 08:46:48;;;;;;;10.73;2.10;;;;;;;6.58;75.43;100912.59;5073327;28;20035;-78
2022/02/24 08:49:13;;;;;;;11.15;2.50;;;;;;;6.51;74.94;100905.09;5073573;28;20029;-78
2022/02/24 08:51:39;;;;;;;10.80;2.85;;;;;;;6.58;74.89;100896.72;5073129;28;20060;-77
2022/02/24 08:54:05;;;;;;;16.65;3.72;;;;;;;6.62;74.86;100887.63;5073641;28;20135;-78
2022/02/24 08:56:31;;;;;;;13.15;2.42;;;;;;;6.66;75.11;100884.63;5073188;28;20131;-77
2022/02/24 08:58:56;;;;;;;12.50;2.40;;;;;;;6.76;74.58;100881.31;5073404;28;20032;-78
2022/02/24 09:01:21;;;;;;;13.73;2.75;;;;;;;6.88;73.94;100875.97;5073678;28;20070;-78
2022/02/24 09:03:47;;;;;;;12.02;2.97;;;;;;;7.15;73.74;100881.94;5072874;28;20397;-77
2022/02/24 09:06:12;;;;;;;9.38;2.20;;;;;;;7.43;71.89;100870.09;5055666;28;20056;-78
2022/02/24 09:08:38;;;;;;;11.05;2.50;;;;;;;7.66;71.04;100855.09;5072782;28;20461;-78
2022/02/24 09:11:03;;;;;;;13.63;2.65;;;;;;;7.91;69.68;100851.34;5055256;28;20389;-77
2022/02/24 09:13:28;;;;;;;13.00;2.33;;;;;;;8.00;69.59;100847.13;5072584;28;20036;-76
2022/02/24 09:15:54;;;;;;;10.82;2.55;;;;;;;7.86;69.17;100845.56;5072752;28;20468;-78
2022/02/24 09:18:19;;;;;;;13.38;2.95;;;;;;;7.81;69.61;100838.94;5073093;28;20447;-78
2022/02/24 09:20:45;;;;;;;10.57;2.85;;;;;;;7.87;69.88;100819.94;5072600;28;20037;-77
2022/02/24 09:23:10;;;;;;;13.98;2.40;;;;;;;7.80;69.34;100805.47;5072875;28;20039;-77
2022/02/24 09:25:36;;;;;;;12.50;2.63;;;;;;;7.87;69.61;100788.13;5072424;28;20484;-77
2022/02/24 09:28:01;;;;;;;10.10;2.55;;;;;;;7.87;70.10;100774.91;5054897;28;20028;-78
2022/02/24 09:30:26;;;;;;;16.80;2.35;;;;;;;7.84;69.75;100775.16;5072714;28;20044;-77
2022/02/24 09:32:55;;;;;;;18.38;2.97;;;;;;;8.49;68.83;100783.16;5072335;28;20078;-78
2022/02/24 09:35:22;;;;;;;8.82;2.58;;;;;;;9.45;64.57;100766.19;5072003;28;20058;-76
2022/02/24 09:37:48;;;;;;;11.77;2.92;;;;;;;9.61;64.38;100780.78;5072140;28;20029;-76
2022/02/24 09:40:17;;;;;;;13.63;3.30;;;;;;;10.01;62.32;100774.59;5072630;28;20538;-76
2022/02/24 09:42:42;;;;;;;13.70;2.45;;;;;;;11.25;59.67;100750.88;5072302;28;20032;-75
2022/02/24 09:45:09;;;;;;;13.85;2.90;;;;;;;12.32;53.79;100739.59;5073070;28;20043;-75
2022/02/24 09:47:39;;;;;;;16.35;2.60;;;;;;;12.17;55.26;100736.63;5072526;28;20036;-76
2022/02/24 09:50:05;;;;;;;13.38;3.25;;;;;;;13.30;52.06;100746.66;5072586;28;20136;-76
2022/02/24 09:52:31;;;;;;;14.43;2.72;;;;;;;15.10;46.21;100742.59;5072830;28;20064;-76
2022/02/24 09:54:56;;;;;;;11.63;3.40;;;;;;;14.26;47.93;100756.19;5037557;28;20124;-76
2022/02/24 09:57:22;;;;;;;10.35;3.38;;;;;;;12.82;52.14;100735.53;5072738;28;20033;-74
2022/02/24 09:59:47;;;;;;;12.38;3.50;;;;;;;12.09;53.69;100749.91;5072219;28;20043;-74
2022/02/24 10:02:15;;;;;;;10.30;2.85;;;;;;;12.13;54.26;100729.91;5072517;28;20392;-76
2022/02/24 10:05:11;;;;;;;11.77;2.72;;;;;;;12.69;52.34;100725.25;5071988;28;20029;-77
2022/02/24 10:07:38;;;;;;;16.35;3.25;;;;;;;12.82;52.79;100713.31;5051055;28;20068;-76
2022/02/24 10:10:31;;;;;;;13.57;2.75;;;;;;;14.08;49.77;100705.47;5054086;28;20500;-77
2022/02/24 10:13:26;;;;;;;15.55;3.95;;;;;;;13.90;50.08;100694.94;5071915;28;20064;-77
2022/02/24 10:16:02;;;;;;;8.82;2.80;;;;;;;15.18;46.02;100692.69;5050002;28;20048;-77
2022/02/24 10:18:30;;;;;;;14.95;3.58;;;;;;;15.20;45.04;100675.44;5054320;28;20481;-77
2022/02/24 10:21:01;;;;;;;12.60;3.17;;;;;;;12.80;51.26;100691.28;5072033;28;20031;-76
2022/02/24 10:23:38;;;;;;;11.63;3.40;;;;;;;11.37;56.07;100688.41;5072407;28;20037;-77
2022/02/24 10:26:13;;;;;;;16.52;3.72;;;;;;;10.66;59.14;100686.28;5072356;28;20350;-78
2022/02/24 10:28:51;;;;;;;12.88;3.25;;;;;;;9.96;61.03;100713.03;5071689;28;20449;-77
2022/02/24 10:31:27;;;;;;;15.60;3.72;;;;;;;9.38;63.29;100690.66;5072050;28;20025;-75
2022/02/24 10:34:14;;;;;;;17.63;3.00;;;;;;;8.94;65.39;100682.09;5071344;28;20110;-77
2022/02/24 10:36:40;;;;;;;12.13;3.50;;;;;;;8.66;67.41;100668.56;5071246;28;20492;-76
2022/02/24 10:39:06;;;;;;;13.48;3.30;;;;;;;8.59;67.84;100659.44;5053923;28;20032;-78
2022/02/24 10:41:35;;;;;;;13.30;3.30;;;;;;;8.42;69.49;100658.16;5071989;28;20554;-77
2022/02/24 10:44:33;;;;;;;17.05;3.40;;;;;;;8.38;69.52;100657.59;5071638;28;20060;-76
2022/02/24 10:47:04;;;;;;;13.85;3.30;;;;;;;8.37;69.45;100660.38;5053755;28;20098;-76
2022/02/24 10:49:35;;;;;;;15.30;3.38;;;;;;;8.38;69.63;100651.47;5075810;28;20074;-76
2022/02/24 10:52:19;;;;;;;12.13;3.28;;;;;;;8.45;69.65;100644.72;5075123;28;20618;-76
2022/02/24 10:54:55;;;;;;;16.50;3.10;;;;;;;8.69;68.82;100640.91;5075086;28;20560;-77
2022/02/24 10:57:24;;;;;;;13.50;3.05;;;;;;;8.81;67.77;100623.97;5075935;28;20060;-77
2022/02/24 10:59:57;;;;;;;14.10;3.17;;;;;;;8.78;67.83;100606.50;5075394;28;20033;-77
2022/02/24 11:02:24;;;;;;;15.18;3.50;;;;;;;8.59;67.86;100604.59;5075454;28;20048;-77
2022/02/24 11:04:53;;;;;;;11.88;3.00;;;;;;;8.63;67.47;100611.31;5075351;28;20048;-77
2022/02/24 11:07:20;;;;;;;17.15;3.45;;;;;;;8.42;70.25;100607.78;5075504;28;20070;-77
2022/02/24 11:09:48;;;;;;;12.82;3.78;;;;;;;8.21;71.34;100595.41;5074998;28;20074;-77
2022/02/24 11:12:16;;;;;;;15.07;3.45;;;;;;;8.07;72.78;100598.38;5074868;28;20048;-77
2022/02/24 11:14:42;;;;;;;10.80;2.83;;;;;;;8.11;73.18;100592.69;5074609;28;20067;-76
2022/02/24 11:17:11;;;;;;;17.98;3.42;;;;;;;7.99;72.91;100593.72;5074463;28;20096;-76
2022/02/24 11:19:39;;;;;;;18.17;3.70;;;;;;;7.92;73.72;100600.50;5074801;28;20052;-76
2022/02/24 11:22:06;;;;;;;20.95;4.15;;;;;;;7.77;74.13;100574.31;5074273;28;20032;-76